Time;durP1;ratioP1;P1;durP2;ratioP2;P2;SDS_P1;SDS_P2;PMS_P1;PMS_P2;Temp;Humidity;BMP_temperature;BMP_pressure;BME280_temperature;BME280_humidity;BME280_pressure;Samples;Min_cycle;Max_cycle;Signal;HPM_P1;HPM_P2
2021/06/11 00:01:42;;;;;;;12.15;11.25;;;;;;;;;;5067338;28;20177;-58
2021/06/11 00:04:08;;;;;;;13.48;12.45;;;;;;;;;;5067014;28;20199;-58
2021/06/11 00:06:33;;;;;;;12.40;11.50;;;;;;;;;;5069502;28;20172;-58
2021/06/11 00:08:58;;;;;;;13.03;12.13;;;;;;;;;;5068668;28;20178;-58
2021/06/11 00:11:23;;;;;;;12.67;11.67;;;;;;;;;;5067910;28;20278;-58
2021/06/11 00:13:49;;;;;;;12.70;11.80;;;;;;;;;;5067997;28;20547;-58
2021/06/11 00:16:14;;;;;;;13.02;11.90;;;;;;;;;;5068229;28;20172;-58
2021/06/11 00:18:39;;;;;;;12.30;11.23;;;;;;;;;;5068905;28;20246;-59
2021/06/11 00:21:04;;;;;;;12.38;11.38;;;;;;;;;;5068739;28;20192;-58
2021/06/11 00:23:29;;;;;;;12.53;11.63;;;;;;;;;;5067978;28;20531;-58
2021/06/11 00:25:54;;;;;;;13.25;12.13;;;;;;;;;;5068356;28;20184;-58
2021/06/11 00:28:20;;;;;;;13.90;12.80;;;;;;;;;;5068174;28;20166;-58
2021/06/11 00:30:45;;;;;;;14.80;13.70;;;;;;;;;;5068613;28;20262;-58
2021/06/11 00:33:10;;;;;;;13.40;12.40;;;;;;;;;;5068107;28;20305;-58
2021/06/11 00:35:36;;;;;;;13.40;12.50;;;;;;;;;;5068496;28;20179;-58
2021/06/11 00:38:01;;;;;;;12.30;11.30;;;;;;;;;;5068721;28;20194;-58
2021/06/11 00:40:26;;;;;;;11.60;10.80;;;;;;;;;;5067546;28;20188;-58
2021/06/11 00:42:52;;;;;;;12.23;11.32;;;;;;;;;;5068106;28;20192;-58
2021/06/11 00:45:17;;;;;;;11.97;11.07;;;;;;;;;;5066345;28;20628;-58
2021/06/11 00:47:45;;;;;;;12.60;11.60;;;;;;;;;;5065734;28;20293;-58
2021/06/11 00:50:11;;;;;;;12.80;11.90;;;;;;;;;;5068094;28;20176;-58
2021/06/11 00:52:38;;;;;;;12.87;11.77;;;;;;;;;;5068054;28;20646;-58
2021/06/11 00:55:03;;;;;;;11.40;10.50;;;;;;;;;;5067802;28;20589;-59
2021/06/11 00:57:29;;;;;;;13.87;12.50;;;;;;;;;;5067887;28;20600;-59
2021/06/11 00:59:55;;;;;;;12.60;11.40;;;;;;;;;;5067959;28;20685;-58
2021/06/11 01:02:22;;;;;;;12.60;11.70;;;;;;;;;;5066416;28;20208;-59
2021/06/11 01:04:47;;;;;;;13.80;12.67;;;;;;;;;;5066578;28;20993;-58
2021/06/11 01:07:12;;;;;;;11.93;11.03;;;;;;;;;;5067323;28;20597;-59
2021/06/11 01:09:39;;;;;;;11.60;10.67;;;;;;;;;;5068371;28;20188;-58
2021/06/11 01:12:05;;;;;;;11.20;10.40;;;;;;;;;;5066801;28;20222;-58
2021/06/11 01:14:30;;;;;;;12.67;11.77;;;;;;;;;;5067532;28;21281;-58
2021/06/11 01:16:55;;;;;;;13.00;12.00;;;;;;;;;;5067627;28;21122;-58
2021/06/11 01:19:23;;;;;;;11.67;10.63;;;;;;;;;;5067609;28;20184;-58
2021/06/11 01:21:53;;;;;;;11.83;11.03;;;;;;;;;;5067875;28;20747;-59
2021/06/11 01:24:20;;;;;;;12.27;11.37;;;;;;;;;;5066945;28;21260;-59
2021/06/11 01:26:55;;;;;;;12.57;11.67;;;;;;;;;;5067031;28;20629;-58
2021/06/11 01:29:22;;;;;;;12.40;11.43;;;;;;;;;;5067350;28;20702;-58
2021/06/11 01:31:53;;;;;;;14.00;12.90;;;;;;;;;;5067548;28;20634;-58
2021/06/11 01:34:24;;;;;;;11.70;10.83;;;;;;;;;;5067333;28;21348;-59
2021/06/11 01:36:52;;;;;;;13.77;12.80;;;;;;;;;;5068152;28;20592;-58
2021/06/11 01:39:18;;;;;;;13.90;12.50;;;;;;;;;;5067507;28;20650;-58
2021/06/11 01:41:43;;;;;;;11.97;11.17;;;;;;;;;;5067348;28;20702;-58
2021/06/11 01:44:10;;;;;;;12.20;11.20;;;;;;;;;;5067068;28;21025;-58
2021/06/11 01:46:37;;;;;;;11.83;11.03;;;;;;;;;;5066929;28;20221;-58
2021/06/11 01:49:03;;;;;;;13.40;12.30;;;;;;;;;;5066599;28;20604;-58
2021/06/11 01:51:29;;;;;;;13.77;12.70;;;;;;;;;;5067090;28;21122;-58
2021/06/11 01:53:55;;;;;;;13.67;12.67;;;;;;;;;;5067168;28;20169;-58
2021/06/11 01:56:21;;;;;;;12.97;12.00;;;;;;;;;;5066813;28;20967;-58
2021/06/11 01:58:46;;;;;;;13.40;12.27;;;;;;;;;;5067287;28;20597;-58
2021/06/11 02:01:12;;;;;;;12.33;11.33;;;;;;;;;;5065747;28;20609;-58
2021/06/11 02:03:39;;;;;;;12.87;11.97;;;;;;;;;;5065436;28;20908;-58
2021/06/11 02:06:05;;;;;;;12.60;11.60;;;;;;;;;;5067605;28;20607;-58
2021/06/11 02:08:30;;;;;;;13.53;12.33;;;;;;;;;;5066853;28;20689;-58
2021/06/11 02:10:57;;;;;;;11.93;11.13;;;;;;;;;;5066128;28;20219;-58
2021/06/11 02:13:22;;;;;;;12.47;11.57;;;;;;;;;;5066639;28;20274;-58
2021/06/11 02:15:48;;;;;;;12.53;11.63;;;;;;;;;;5066842;28;20698;-58
2021/06/11 02:18:14;;;;;;;11.80;10.70;;;;;;;;;;5067147;28;20178;-58
2021/06/11 02:20:39;;;;;;;11.63;10.83;;;;;;;;;;5066611;28;20515;-58
2021/06/11 02:23:05;;;;;;;11.97;11.07;;;;;;;;;;5066306;28;20599;-57
2021/06/11 02:25:30;;;;;;;12.53;11.63;;;;;;;;;;5064179;28;20195;-58
2021/06/11 02:27:56;;;;;;;11.73;10.83;;;;;;;;;;5066266;28;20186;-58
2021/06/11 02:30:21;;;;;;;13.87;12.67;;;;;;;;;;5066154;28;20264;-58
2021/06/11 02:32:46;;;;;;;12.10;11.10;;;;;;;;;;5066318;28;20212;-58
2021/06/11 02:35:13;;;;;;;12.10;11.13;;;;;;;;;;5066397;28;20638;-58
2021/06/11 02:37:38;;;;;;;12.37;11.37;;;;;;;;;;5066959;28;20297;-59
2021/06/11 02:40:05;;;;;;;14.77;13.40;;;;;;;;;;5066607;28;21034;-58
2021/06/11 02:42:30;;;;;;;13.10;11.97;;;;;;;;;;5065631;28;21032;-58
2021/06/11 02:44:57;;;;;;;13.20;12.10;;;;;;;;;;5065230;28;20673;-58
2021/06/11 02:47:39;;;;;;;13.37;12.37;;;;;;;;;;5066252;28;20191;-58
2021/06/11 02:50:07;;;;;;;11.93;10.97;;;;;;;;;;5066459;28;20970;-59
2021/06/11 02:52:33;;;;;;;12.13;11.23;;;;;;;;;;5065785;28;20739;-58
2021/06/11 02:55:00;;;;;;;11.63;10.63;;;;;;;;;;5063749;28;20599;-58
2021/06/11 02:57:43;;;;;;;13.80;12.70;;;;;;;;;;5065303;28;21528;-58
2021/06/11 03:00:09;;;;;;;13.03;12.03;;;;;;;;;;5064028;28;20604;-58
2021/06/11 03:02:44;;;;;;;13.37;11.80;;;;;;;;;;5066785;28;20692;-58
2021/06/11 03:05:09;;;;;;;13.07;12.07;;;;;;;;;;5062287;28;20616;-57
2021/06/11 03:07:36;;;;;;;13.00;11.70;;;;;;;;;;5066724;28;20641;-57
2021/06/11 03:10:04;;;;;;;12.87;11.87;;;;;;;;;;5064060;28;20237;-59
2021/06/11 03:12:30;;;;;;;12.60;11.50;;;;;;;;;;5064445;28;20642;-60
2021/06/11 03:14:56;;;;;;;12.83;11.70;;;;;;;;;;5065307;28;20594;-60
2021/06/11 03:17:26;;;;;;;13.10;11.95;;;;;;;;;;5066482;28;20595;-59
2021/06/11 03:19:55;;;;;;;13.30;12.30;;;;;;;;;;5065504;28;20168;-59
2021/06/11 03:22:24;;;;;;;11.87;10.97;;;;;;;;;;5065895;28;20639;-59
2021/06/11 03:24:50;;;;;;;12.30;11.30;;;;;;;;;;5065802;28;20687;-60
2021/06/11 03:27:19;;;;;;;12.07;11.07;;;;;;;;;;5065805;28;20717;-59
2021/06/11 03:29:48;;;;;;;12.97;11.93;;;;;;;;;;5062083;28;20602;-59
2021/06/11 03:32:16;;;;;;;12.63;11.73;;;;;;;;;;5065029;28;20748;-60
2021/06/11 03:34:43;;;;;;;14.13;12.60;;;;;;;;;;5063550;28;20588;-60
2021/06/11 03:37:12;;;;;;;13.60;12.30;;;;;;;;;;5065964;28;20678;-59
2021/06/11 03:39:46;;;;;;;13.40;12.10;;;;;;;;;;5066167;28;20641;-60
2021/06/11 03:42:12;;;;;;;13.13;12.03;;;;;;;;;;5065547;28;21266;-59
2021/06/11 03:44:41;;;;;;;12.70;11.80;;;;;;;;;;5066049;28;20625;-60
2021/06/11 03:47:08;;;;;;;12.40;11.50;;;;;;;;;;5065962;28;20705;-59
2021/06/11 03:49:34;;;;;;;13.03;11.93;;;;;;;;;;5066713;28;20695;-59
2021/06/11 03:51:59;;;;;;;12.90;11.90;;;;;;;;;;5065471;28;20749;-60
2021/06/11 03:54:25;;;;;;;13.10;12.20;;;;;;;;;;5065682;28;20704;-59
2021/06/11 03:56:52;;;;;;;11.63;10.73;;;;;;;;;;5066369;28;20289;-60
2021/06/11 03:59:18;;;;;;;13.73;12.43;;;;;;;;;;5066162;28;20591;-59
2021/06/11 04:01:46;;;;;;;13.07;12.10;;;;;;;;;;5068023;28;21272;-59
2021/06/11 04:04:11;;;;;;;12.20;11.40;;;;;;;;;;5064835;28;20799;-59
2021/06/11 04:06:37;;;;;;;13.90;12.80;;;;;;;;;;5069312;28;20599;-59
2021/06/11 04:09:07;;;;;;;13.80;12.70;;;;;;;;;;5068559;28;20254;-59
2021/06/11 04:11:37;;;;;;;12.33;11.30;;;;;;;;;;5068806;28;20657;-59
2021/06/11 04:14:02;;;;;;;13.10;12.20;;;;;;;;;;5068517;28;20595;-59
2021/06/11 04:16:27;;;;;;;12.40;11.50;;;;;;;;;;5068890;28;20711;-59
2021/06/11 04:18:54;;;;;;;12.35;11.25;;;;;;;;;;5067542;28;20242;-60
2021/06/11 04:21:21;;;;;;;13.27;12.10;;;;;;;;;;5065850;28;20687;-60
2021/06/11 04:23:46;;;;;;;11.87;10.87;;;;;;;;;;5059904;28;20720;-60
2021/06/11 04:26:16;;;;;;;12.50;11.43;;;;;;;;;;5064653;28;20711;-59
2021/06/11 04:28:41;;;;;;;12.73;11.63;;;;;;;;;;5066511;28;20859;-60
2021/06/11 04:31:06;;;;;;;12.03;11.10;;;;;;;;;;5068341;28;20696;-60
2021/06/11 04:33:32;;;;;;;12.67;11.67;;;;;;;;;;5067958;28;20544;-60
2021/06/11 04:35:57;;;;;;;12.17;11.07;;;;;;;;;;5060856;28;20570;-60
2021/06/11 04:38:23;;;;;;;11.43;10.63;;;;;;;;;;5063924;28;20226;-60
2021/06/11 04:40:48;;;;;;;11.67;10.87;;;;;;;;;;5064938;28;20658;-60
2021/06/11 04:43:14;;;;;;;11.40;10.53;;;;;;;;;;5062640;28;20223;-60
2021/06/11 04:45:39;;;;;;;11.77;10.77;;;;;;;;;;5063281;28;20202;-60
2021/06/11 04:48:05;;;;;;;12.30;11.40;;;;;;;;;;5063784;28;20225;-60
2021/06/11 04:50:30;;;;;;;12.40;11.40;;;;;;;;;;5064511;28;20212;-60
2021/06/11 04:52:55;;;;;;;13.20;12.10;;;;;;;;;;5063979;28;20214;-60
2021/06/11 04:55:21;;;;;;;13.70;12.30;;;;;;;;;;5064969;28;20165;-60
2021/06/11 04:57:46;;;;;;;12.50;11.50;;;;;;;;;;5063757;28;20181;-60
2021/06/11 05:00:12;;;;;;;12.33;11.33;;;;;;;;;;5063066;28;20179;-59
2021/06/11 05:02:37;;;;;;;11.87;10.97;;;;;;;;;;5064293;28;20266;-59
2021/06/11 05:05:02;;;;;;;11.60;10.70;;;;;;;;;;5062389;28;20208;-59
2021/06/11 05:07:28;;;;;;;12.00;11.20;;;;;;;;;;5063493;28;20212;-60
2021/06/11 05:09:53;;;;;;;11.23;10.48;;;;;;;;;;5064104;28;20233;-60
2021/06/11 05:12:18;;;;;;;11.50;10.50;;;;;;;;;;5063775;28;20210;-60
2021/06/11 05:14:43;;;;;;;11.57;10.80;;;;;;;;;;5063799;28;20765;-59
2021/06/11 05:17:08;;;;;;;11.27;10.43;;;;;;;;;;5054396;28;20177;-59
2021/06/11 05:19:34;;;;;;;12.13;11.10;;;;;;;;;;5063702;28;20233;-58
2021/06/11 05:21:59;;;;;;;11.77;10.70;;;;;;;;;;5066356;28;20171;-58
2021/06/11 05:24:24;;;;;;;12.15;11.20;;;;;;;;;;5065918;28;20257;-59
2021/06/11 05:26:49;;;;;;;11.63;10.83;;;;;;;;;;5067579;28;20194;-59
2021/06/11 05:29:14;;;;;;;11.83;10.93;;;;;;;;;;5066688;28;20529;-59
2021/06/11 05:31:40;;;;;;;11.70;10.90;;;;;;;;;;5067540;28;20265;-59
2021/06/11 05:34:05;;;;;;;12.33;11.43;;;;;;;;;;5067896;28;20209;-59
2021/06/11 05:36:30;;;;;;;11.80;10.80;;;;;;;;;;5066785;28;20171;-58
2021/06/11 05:38:55;;;;;;;11.83;10.83;;;;;;;;;;5067498;28;20168;-58
2021/06/11 05:41:20;;;;;;;10.68;9.98;;;;;;;;;;5067482;28;20173;-59
2021/06/11 05:43:46;;;;;;;10.73;9.93;;;;;;;;;;5067226;28;20175;-59
2021/06/11 05:46:12;;;;;;;11.43;10.23;;;;;;;;;;5066734;28;20168;-59
2021/06/11 05:48:39;;;;;;;10.20;9.60;;;;;;;;;;5065288;28;20175;-59
2021/06/11 05:51:04;;;;;;;11.17;10.03;;;;;;;;;;5066828;28;20592;-59
2021/06/11 05:53:30;;;;;;;10.73;9.73;;;;;;;;;;5066485;28;21270;-59
2021/06/11 05:55:55;;;;;;;10.30;9.40;;;;;;;;;;5064798;28;20671;-59
2021/06/11 05:58:20;;;;;;;10.27;8.70;;;;;;;;;;5063967;28;20182;-59
2021/06/11 06:00:45;;;;;;;12.05;10.50;;;;;;;;;;5064687;28;20226;-59
2021/06/11 06:03:11;;;;;;;9.70;9.00;;;;;;;;;;5062331;28;20584;-59
2021/06/11 06:05:36;;;;;;;9.17;8.57;;;;;;;;;;5062676;28;20165;-59
2021/06/11 06:08:01;;;;;;;10.00;9.30;;;;;;;;;;5063745;28;20892;-59
2021/06/11 06:10:26;;;;;;;9.60;8.70;;;;;;;;;;5063411;28;20244;-59
2021/06/11 06:12:51;;;;;;;8.95;8.35;;;;;;;;;;5064618;28;20602;-59
2021/06/11 06:15:17;;;;;;;8.53;8.00;;;;;;;;;;5063951;28;20200;-60
2021/06/11 06:17:42;;;;;;;9.00;8.40;;;;;;;;;;5064231;28;20189;-59
2021/06/11 06:20:08;;;;;;;8.95;8.35;;;;;;;;;;5063144;28;20169;-60
2021/06/11 06:22:33;;;;;;;9.30;8.70;;;;;;;;;;5063983;28;20192;-60
2021/06/11 06:24:58;;;;;;;9.67;9.00;;;;;;;;;;5064361;28;21037;-59
2021/06/11 06:27:24;;;;;;;8.27;7.60;;;;;;;;;;5063575;28;20189;-59
2021/06/11 06:29:49;;;;;;;8.87;8.37;;;;;;;;;;5063727;28;20181;-59
2021/06/11 06:32:14;;;;;;;8.70;7.20;;;;;;;;;;5063070;28;20200;-60
2021/06/11 06:34:39;;;;;;;8.32;7.63;;;;;;;;;;5063950;28;20714;-60
2021/06/11 06:37:06;;;;;;;8.80;8.20;;;;;;;;;;5064079;28;20173;-60
2021/06/11 06:39:31;;;;;;;8.67;8.17;;;;;;;;;;5064330;28;20189;-60
2021/06/11 06:41:58;;;;;;;8.77;8.17;;;;;;;;;;5063237;28;20622;-59
2021/06/11 06:44:23;;;;;;;8.03;7.43;;;;;;;;;;5066412;28;20198;-59
2021/06/11 06:46:48;;;;;;;8.13;7.40;;;;;;;;;;5063875;28;20623;-59
2021/06/11 06:49:13;;;;;;;7.20;6.80;;;;;;;;;;5066474;28;20280;-59
2021/06/11 06:51:39;;;;;;;8.23;7.38;;;;;;;;;;5065609;28;20227;-59
2021/06/11 06:54:04;;;;;;;7.10;6.57;;;;;;;;;;5065596;28;20587;-59
2021/06/11 06:56:29;;;;;;;7.83;7.33;;;;;;;;;;5065649;28;20172;-59
2021/06/11 06:58:55;;;;;;;7.40;6.90;;;;;;;;;;5066636;28;20590;-60
2021/06/11 07:01:22;;;;;;;9.20;7.83;;;;;;;;;;5066764;28;20641;-59
2021/06/11 07:03:47;;;;;;;6.27;5.87;;;;;;;;;;5064253;28;20199;-59
2021/06/11 07:06:14;;;;;;;7.50;6.97;;;;;;;;;;5066226;28;20568;-59
2021/06/11 07:08:39;;;;;;;10.53;8.00;;;;;;;;;;5066553;28;20191;-59
2021/06/11 07:11:04;;;;;;;6.93;6.30;;;;;;;;;;5069038;28;20645;-60
2021/06/11 07:13:31;;;;;;;9.57;8.07;;;;;;;;;;5069623;28;20168;-60
2021/06/11 07:15:57;;;;;;;9.27;8.50;;;;;;;;;;5070702;28;20164;-59
2021/06/11 07:18:22;;;;;;;7.03;6.47;;;;;;;;;;5069890;28;20592;-59
2021/06/11 07:20:47;;;;;;;7.90;7.40;;;;;;;;;;5069864;28;20164;-59
2021/06/11 07:23:12;;;;;;;8.73;8.00;;;;;;;;;;5070338;28;20212;-59
2021/06/11 07:25:37;;;;;;;7.82;7.22;;;;;;;;;;5070590;28;20256;-58
2021/06/11 07:28:03;;;;;;;7.90;7.18;;;;;;;;;;5070037;28;20183;-59
2021/06/11 07:30:28;;;;;;;8.90;8.00;;;;;;;;;;5070316;28;20180;-59
2021/06/11 07:32:53;;;;;;;8.93;8.03;;;;;;;;;;5069182;28;20238;-59
2021/06/11 07:35:20;;;;;;;9.82;9.13;;;;;;;;;;5069726;28;20176;-59
2021/06/11 07:37:45;;;;;;;10.63;9.73;;;;;;;;;;5070188;28;20183;-58
2021/06/11 07:40:11;;;;;;;11.55;10.75;;;;;;;;;;5069730;28;21171;-59
2021/06/11 07:42:36;;;;;;;12.67;11.47;;;;;;;;;;5069181;28;20258;-59
2021/06/11 07:45:02;;;;;;;10.13;9.43;;;;;;;;;;5070285;28;20552;-59
2021/06/11 07:47:27;;;;;;;9.17;8.50;;;;;;;;;;5069533;28;20191;-59
2021/06/11 07:49:53;;;;;;;8.80;8.10;;;;;;;;;;5069728;28;20680;-59
2021/06/11 07:52:18;;;;;;;8.93;8.23;;;;;;;;;;5069318;28;20205;-58
2021/06/11 07:54:43;;;;;;;8.93;8.23;;;;;;;;;;5069453;28;20175;-58
2021/06/11 07:57:08;;;;;;;9.77;8.97;;;;;;;;;;5069831;28;20183;-59
2021/06/11 07:59:34;;;;;;;11.70;10.80;;;;;;;;;;5069440;28;20191;-59
2021/06/11 08:01:59;;;;;;;11.83;11.03;;;;;;;;;;5068963;28;20188;-58
2021/06/11 08:04:24;;;;;;;12.57;11.57;;;;;;;;;;5069733;28;20203;-58
2021/06/11 08:06:49;;;;;;;11.33;10.47;;;;;;;;;;5069521;28;20275;-59
2021/06/11 08:09:14;;;;;;;11.60;10.90;;;;;;;;;;5069857;28;20178;-58
2021/06/11 08:11:40;;;;;;;11.17;10.40;;;;;;;;;;5068787;28;20838;-59
2021/06/11 08:14:05;;;;;;;11.90;11.00;;;;;;;;;;5068966;28;20695;-59
2021/06/11 08:16:30;;;;;;;11.27;10.37;;;;;;;;;;5069024;28;20910;-59
2021/06/11 08:18:55;;;;;;;11.95;11.15;;;;;;;;;;5069339;28;20243;-59
2021/06/11 08:21:20;;;;;;;12.63;11.73;;;;;;;;;;5068286;28;20176;-59
2021/06/11 08:23:46;;;;;;;13.63;12.60;;;;;;;;;;5069348;28;20222;-58
2021/06/11 08:26:11;;;;;;;11.30;10.50;;;;;;;;;;5069296;28;20230;-59
2021/06/11 08:28:37;;;;;;;12.80;11.80;;;;;;;;;;5069152;28;20507;-59
2021/06/11 08:31:02;;;;;;;13.17;12.23;;;;;;;;;;5069382;28;20543;-58
2021/06/11 08:33:27;;;;;;;12.40;11.37;;;;;;;;;;5067818;28;20640;-59
2021/06/11 08:35:52;;;;;;;12.27;11.38;;;;;;;;;;5068766;28;20722;-58
2021/06/11 08:38:19;;;;;;;13.10;12.20;;;;;;;;;;5069266;28;20177;-60
2021/06/11 08:40:45;;;;;;;13.00;12.10;;;;;;;;;;5068780;28;20198;-58
2021/06/11 08:43:10;;;;;;;11.50;10.70;;;;;;;;;;5067823;28;22698;-58
2021/06/11 08:45:35;;;;;;;15.63;14.48;;;;;;;;;;5068215;28;20178;-59
2021/06/11 08:48:00;;;;;;;13.50;12.60;;;;;;;;;;5068735;28;20179;-59
2021/06/11 08:50:28;;;;;;;17.50;16.17;;;;;;;;;;5068621;28;20180;-58
2021/06/11 08:52:54;;;;;;;15.80;14.70;;;;;;;;;;5067854;28;20562;-59
2021/06/11 08:55:20;;;;;;;12.70;11.70;;;;;;;;;;5068588;28;20576;-59
2021/06/11 08:57:45;;;;;;;17.30;15.90;;;;;;;;;;5068692;28;20544;-58
2021/06/11 09:00:11;;;;;;;14.87;13.67;;;;;;;;;;5068249;28;20711;-58
2021/06/11 09:02:56;;;;;;;15.80;14.20;;;;;;;;;;5067178;28;20180;-59
2021/06/11 09:05:21;;;;;;;13.77;12.87;;;;;;;;;;5068091;28;20186;-59
2021/06/11 09:07:46;;;;;;;14.30;13.23;;;;;;;;;;5066937;28;21188;-58
2021/06/11 09:10:11;;;;;;;17.30;15.90;;;;;;;;;;5067742;28;20215;-58
2021/06/11 09:12:38;;;;;;;17.13;15.83;;;;;;;;;;5068020;28;20297;-58
2021/06/11 09:15:05;;;;;;;15.47;14.33;;;;;;;;;;5068341;28;20205;-58
2021/06/11 09:17:34;;;;;;;14.60;13.60;;;;;;;;;;5068116;28;20594;-58
2021/06/11 09:20:03;;;;;;;13.03;12.10;;;;;;;;;;5067620;28;20593;-58
2021/06/11 09:22:36;;;;;;;13.67;12.67;;;;;;;;;;5067215;28;20630;-59
2021/06/11 09:25:20;;;;;;;13.67;12.60;;;;;;;;;;5067983;28;21092;-59
2021/06/11 09:27:48;;;;;;;11.50;10.70;;;;;;;;;;5067591;28;20590;-58
2021/06/11 09:30:14;;;;;;;13.50;12.40;;;;;;;;;;5066974;28;20615;-59
2021/06/11 09:32:39;;;;;;;13.03;12.03;;;;;;;;;;5067346;28;20677;-60
2021/06/11 09:35:06;;;;;;;15.65;14.27;;;;;;;;;;5066070;28;20258;-59
2021/06/11 09:37:34;;;;;;;12.23;11.30;;;;;;;;;;5067552;28;20320;-58
2021/06/11 09:40:12;;;;;;;12.77;11.77;;;;;;;;;;5067976;28;20586;-58
2021/06/11 09:42:38;;;;;;;11.80;10.97;;;;;;;;;;5067175;28;20582;-59
2021/06/11 09:45:05;;;;;;;10.30;9.70;;;;;;;;;;5067815;28;20569;-58
2021/06/11 09:47:33;;;;;;;10.67;9.83;;;;;;;;;;5067225;28;21265;-59
2021/06/11 09:50:03;;;;;;;11.70;10.80;;;;;;;;;;5067592;28;20571;-58
2021/06/11 09:52:34;;;;;;;10.73;10.03;;;;;;;;;;5066410;28;20740;-58
2021/06/11 09:55:02;;;;;;;10.37;9.77;;;;;;;;;;5067811;28;20587;-59
2021/06/11 09:57:33;;;;;;;9.50;8.70;;;;;;;;;;5067627;28;20937;-59
2021/06/11 09:59:58;;;;;;;11.07;10.27;;;;;;;;;;5067476;28;20533;-58
2021/06/11 10:02:23;;;;;;;11.32;10.23;;;;;;;;;;5066908;28;20675;-59
2021/06/11 10:04:48;;;;;;;10.38;9.68;;;;;;;;;;5067409;28;20223;-58
2021/06/11 10:07:13;;;;;;;9.50;8.70;;;;;;;;;;5067026;28;20188;-59
2021/06/11 10:09:39;;;;;;;9.67;8.93;;;;;;;;;;5066891;28;20295;-59
2021/06/11 10:12:05;;;;;;;12.37;11.47;;;;;;;;;;5066958;28;20225;-58
2021/06/11 10:14:30;;;;;;;11.33;10.30;;;;;;;;;;5066480;28;20184;-58
2021/06/11 10:16:56;;;;;;;9.70;9.00;;;;;;;;;;5067499;28;20661;-58
2021/06/11 10:19:21;;;;;;;10.70;9.80;;;;;;;;;;5067363;28;20609;-58
2021/06/11 10:21:46;;;;;;;8.00;7.50;;;;;;;;;;5066574;28;20186;-58
2021/06/11 10:24:14;;;;;;;9.68;8.98;;;;;;;;;;5067253;28;20177;-58
2021/06/11 10:26:40;;;;;;;9.27;8.67;;;;;;;;;;5067247;28;20261;-58
2021/06/11 10:29:05;;;;;;;8.17;7.67;;;;;;;;;;5067230;28;20597;-58
2021/06/11 10:31:35;;;;;;;9.17;8.40;;;;;;;;;;5066791;28;20636;-58
2021/06/11 10:34:02;;;;;;;6.80;6.33;;;;;;;;;;5067403;28;20190;-58
2021/06/11 10:36:29;;;;;;;6.97;6.57;;;;;;;;;;5066212;28;20600;-58
2021/06/11 10:38:55;;;;;;;6.83;6.43;;;;;;;;;;5067225;28;20581;-59
2021/06/11 10:41:20;;;;;;;6.63;6.13;;;;;;;;;;5067213;28;20587;-58
2021/06/11 10:43:45;;;;;;;6.80;6.20;;;;;;;;;;5067551;28;21093;-59
2021/06/11 10:46:24;;;;;;;6.07;5.67;;;;;;;;;;5070610;28;20171;-59
2021/06/11 10:48:55;;;;;;;6.93;6.33;;;;;;;;;;5058060;28;20182;-58
2021/06/11 10:51:37;;;;;;;6.20;5.80;;;;;;;;;;5070851;28;20693;-58
2021/06/11 10:54:21;;;;;;;6.23;5.90;;;;;;;;;;5070722;28;20535;-58
2021/06/11 10:56:58;;;;;;;7.03;6.50;;;;;;;;;;5070349;28;20586;-58
2021/06/11 10:59:36;;;;;;;6.57;6.07;;;;;;;;;;5070116;28;20622;-59
2021/06/11 11:02:02;;;;;;;6.57;6.17;;;;;;;;;;5071045;28;20600;-59
2021/06/11 11:04:35;;;;;;;5.50;5.20;;;;;;;;;;5069642;28;20688;-59
2021/06/11 11:07:19;;;;;;;6.13;5.67;;;;;;;;;;5070364;28;20772;-58
2021/06/11 11:09:54;;;;;;;4.43;4.13;;;;;;;;;;5070494;28;20572;-59
2021/06/11 11:12:20;;;;;;;4.67;4.40;;;;;;;;;;5070898;28;20700;-58
2021/06/11 11:14:45;;;;;;;5.10;4.80;;;;;;;;;;5070182;28;20570;-58
2021/06/11 11:17:11;;;;;;;5.40;5.10;;;;;;;;;;5069499;28;20273;-58
2021/06/11 11:19:45;;;;;;;5.30;5.00;;;;;;;;;;5070606;28;20231;-59
2021/06/11 11:22:21;;;;;;;4.70;4.40;;;;;;;;;;5068997;28;20196;-59
2021/06/11 11:24:47;;;;;;;4.53;4.13;;;;;;;;;;5070550;28;20612;-58
2021/06/11 11:27:12;;;;;;;4.90;4.50;;;;;;;;;;5069961;28;20657;-58
2021/06/11 11:29:37;;;;;;;5.43;5.05;;;;;;;;;;5069885;28;20601;-58
2021/06/11 11:32:02;;;;;;;5.77;4.80;;;;;;;;;;5070454;28;20661;-58
2021/06/11 11:34:27;;;;;;;4.70;4.20;;;;;;;;;;5069138;28;20174;-58
2021/06/11 11:36:53;;;;;;;5.20;4.80;;;;;;;;;;5069702;28;20197;-58
2021/06/11 11:39:18;;;;;;;5.63;5.23;;;;;;;;;;5070333;28;20619;-58
2021/06/11 11:41:44;;;;;;;5.85;5.55;;;;;;;;;;5069742;28;20167;-58
2021/06/11 11:44:09;;;;;;;5.40;5.10;;;;;;;;;;5069320;28;20661;-58
2021/06/11 11:46:35;;;;;;;5.57;5.18;;;;;;;;;;5069559;28;21022;-58
2021/06/11 11:49:00;;;;;;;5.10;4.80;;;;;;;;;;5069923;28;20189;-58
2021/06/11 11:51:25;;;;;;;5.70;5.20;;;;;;;;;;5069110;28;20205;-58
2021/06/11 11:53:50;;;;;;;5.17;4.77;;;;;;;;;;5069672;28;20168;-58
2021/06/11 11:56:15;;;;;;;4.80;4.50;;;;;;;;;;5068772;28;20223;-58
2021/06/11 11:58:41;;;;;;;5.40;5.10;;;;;;;;;;5069711;28;20249;-58
2021/06/11 12:01:06;;;;;;;5.33;4.93;;;;;;;;;;5069585;28;21008;-58
2021/06/11 12:03:31;;;;;;;4.67;4.47;;;;;;;;;;5068967;28;20193;-58
2021/06/11 12:05:56;;;;;;;5.20;4.90;;;;;;;;;;5068957;28;20173;-58
2021/06/11 12:08:21;;;;;;;6.57;6.07;;;;;;;;;;5069412;28;20209;-58
2021/06/11 12:10:46;;;;;;;5.40;5.10;;;;;;;;;;5069861;28;20287;-59
2021/06/11 12:13:12;;;;;;;6.10;5.70;;;;;;;;;;5068833;28;20206;-58
2021/06/11 12:15:37;;;;;;;6.07;5.57;;;;;;;;;;5068711;28;20182;-59
2021/06/11 12:18:02;;;;;;;6.80;6.30;;;;;;;;;;5069511;28;20173;-58
2021/06/11 12:20:31;;;;;;;7.37;6.97;;;;;;;;;;5068942;28;20174;-58
2021/06/11 12:22:57;;;;;;;7.20;6.63;;;;;;;;;;5067863;28;20730;-58
2021/06/11 12:25:22;;;;;;;7.60;7.10;;;;;;;;;;5068446;28;20604;-58
2021/06/11 12:27:47;;;;;;;7.90;7.40;;;;;;;;;;5069309;28;20185;-58
2021/06/11 12:30:12;;;;;;;7.38;6.97;;;;;;;;;;5068993;28;20281;-58
2021/06/11 12:32:38;;;;;;;7.43;6.90;;;;;;;;;;5068452;28;20612;-59
2021/06/11 12:35:03;;;;;;;7.07;6.47;;;;;;;;;;5068803;28;20177;-58
2021/06/11 12:37:28;;;;;;;6.07;5.60;;;;;;;;;;5068067;28;20319;-59
2021/06/11 12:39:54;;;;;;;5.70;5.30;;;;;;;;;;5069048;28;20185;-59
2021/06/11 12:42:21;;;;;;;6.60;6.10;;;;;;;;;;5069102;28;20169;-59
2021/06/11 12:44:47;;;;;;;5.63;5.20;;;;;;;;;;5068046;28;20581;-59
2021/06/11 12:47:13;;;;;;;5.50;5.10;;;;;;;;;;5069344;28;20585;-59
2021/06/11 12:49:39;;;;;;;5.93;5.60;;;;;;;;;;5068443;28;20576;-59
2021/06/11 12:52:05;;;;;;;5.73;5.33;;;;;;;;;;5068122;28;20213;-59
2021/06/11 12:54:30;;;;;;;6.90;6.30;;;;;;;;;;5068203;28;20204;-59
2021/06/11 12:56:55;;;;;;;5.75;5.28;;;;;;;;;;5066075;28;20579;-59
2021/06/11 12:59:20;;;;;;;6.77;6.37;;;;;;;;;;5068908;28;20162;-58
2021/06/11 13:01:46;;;;;;;4.97;4.67;;;;;;;;;;5068174;28;20608;-58
2021/06/11 13:04:11;;;;;;;6.57;5.97;;;;;;;;;;5067638;28;20198;-58
2021/06/11 13:06:36;;;;;;;6.40;5.97;;;;;;;;;;5068039;28;20178;-59
2021/06/11 13:09:03;;;;;;;4.87;4.57;;;;;;;;;;5068761;28;20249;-59
2021/06/11 13:11:29;;;;;;;5.10;4.80;;;;;;;;;;5058921;28;20222;-59
2021/06/11 13:13:55;;;;;;;6.30;5.90;;;;;;;;;;5067299;28;20598;-59
2021/06/11 13:16:20;;;;;;;5.37;5.07;;;;;;;;;;5068425;28;20653;-58
2021/06/11 13:18:45;;;;;;;5.60;5.00;;;;;;;;;;5068324;28;20596;-59
2021/06/11 13:21:10;;;;;;;5.32;5.03;;;;;;;;;;5061190;28;20205;-59
2021/06/11 13:23:36;;;;;;;5.53;5.13;;;;;;;;;;5067804;28;20174;-58
2021/06/11 13:26:01;;;;;;;4.83;4.43;;;;;;;;;;5067800;28;20305;-59
2021/06/11 13:28:27;;;;;;;4.80;4.50;;;;;;;;;;5067252;28;20282;-59
2021/06/11 13:30:52;;;;;;;5.30;4.80;;;;;;;;;;5063264;28;20181;-59
2021/06/11 13:33:19;;;;;;;4.53;4.23;;;;;;;;;;5063528;28;20206;-59
2021/06/11 13:35:44;;;;;;;4.77;4.47;;;;;;;;;;5061688;28;20267;-59
2021/06/11 13:38:10;;;;;;;5.03;4.63;;;;;;;;;;5064358;28;20674;-58
2021/06/11 13:40:35;;;;;;;4.97;4.67;;;;;;;;;;5064010;28;20197;-58
2021/06/11 13:43:00;;;;;;;6.07;5.70;;;;;;;;;;5064222;28;20652;-58
2021/06/11 13:45:25;;;;;;;7.65;7.15;;;;;;;;;;5064129;28;20267;-59
2021/06/11 13:47:53;;;;;;;7.80;7.40;;;;;;;;;;5064113;28;20186;-59
2021/06/11 13:50:19;;;;;;;8.40;7.87;;;;;;;;;;5064282;28;20185;-59
2021/06/11 13:52:45;;;;;;;7.70;7.20;;;;;;;;;;5064362;28;20658;-59
2021/06/11 13:55:11;;;;;;;9.67;8.97;;;;;;;;;;5064257;28;20596;-59
2021/06/11 13:57:36;;;;;;;9.53;8.90;;;;;;;;;;5063623;28;20648;-58
2021/06/11 14:00:12;;;;;;;9.33;8.70;;;;;;;;;;5063906;28;20584;-58
2021/06/11 14:02:37;;;;;;;9.30;8.50;;;;;;;;;;5066332;28;20178;-59
2021/06/11 14:05:03;;;;;;;8.63;8.13;;;;;;;;;;5065172;28;20576;-59
2021/06/11 14:07:28;;;;;;;8.97;8.30;;;;;;;;;;5067304;28;20649;-59
2021/06/11 14:09:53;;;;;;;8.82;8.23;;;;;;;;;;5067210;28;20730;-58
2021/06/11 14:12:18;;;;;;;10.60;9.90;;;;;;;;;;5065675;28;20267;-58
2021/06/11 14:14:45;;;;;;;10.65;9.95;;;;;;;;;;5066971;28;20250;-58
2021/06/11 14:17:10;;;;;;;9.73;8.97;;;;;;;;;;5067431;28;20541;-58
2021/06/11 14:19:35;;;;;;;9.40;8.77;;;;;;;;;;5066194;28;20598;-58
2021/06/11 14:22:00;;;;;;;10.00;9.40;;;;;;;;;;5066596;28;20210;-58
2021/06/11 14:24:25;;;;;;;10.20;9.27;;;;;;;;;;5067128;28;20175;-59